Time;durP1;ratioP1;P1;durP2;ratioP2;P2;SDS_P1;SDS_P2;PMS_P1;PMS_P2;Temp;Humidity;BMP_temperature;BMP_pressure;BME280_temperature;BME280_humidity;BME280_pressure;Samples;Min_cycle;Max_cycle;Signal;HPM_P1;HPM_P2
2024/03/03 00:00:41;;;;;;;;;;;;;;;16.18;48.16;100573.59;4958365;29;1902;-44
2024/03/03 00:03:06;;;;;;;;;;;;;;;15.82;49.07;100571.69;4952451;29;1169;-47
2024/03/03 00:05:32;;;;;;;;;;;;;;;15.58;49.46;100569.03;4959388;28;1065;-41
2024/03/03 00:07:57;;;;;;;;;;;;;;;16.60;47.78;100567.84;4948035;29;1173;-47
2024/03/03 00:10:23;;;;;;;;;;;;;;;17.45;44.97;100572.91;4953031;29;1276;-47
2024/03/03 00:12:48;;;;;;;;;;;;;;;16.50;47.55;100563.22;4950708;29;1110;-44
2024/03/03 00:15:14;;;;;;;;;;;;;;;16.01;48.66;100565.94;4958452;29;1150;-43
2024/03/03 00:17:39;;;;;;;;;;;;;;;15.66;49.59;100575.44;4959718;29;1041;-42
2024/03/03 00:20:05;;;;;;;;;;;;;;;15.51;49.84;100573.91;4959194;29;1985;-46
2024/03/03 00:22:31;;;;;;;;;;;;;;;15.97;49.13;100563.56;4959811;29;1186;-46
2024/03/03 00:24:57;;;;;;;;;;;;;;;17.33;45.97;100564.91;4958830;29;1096;-43
2024/03/03 00:27:22;;;;;;;;;;;;;;;16.78;46.97;100554.97;4959271;29;1053;-46
2024/03/03 00:29:48;;;;;;;;;;;;;;;16.19;48.38;100554.91;4959087;29;1065;-45
2024/03/03 00:32:13;;;;;;;;;;;;;;;15.83;49.03;100557.47;4942446;29;1152;-42
2024/03/03 00:34:42;;;;;;;;;;;;;;;15.63;49.26;100559.75;4941825;29;1027;-42
2024/03/03 00:37:07;;;;;;;;;;;;;;;15.42;49.98;100556.84;4939335;29;1235;-46
2024/03/03 00:39:33;;;;;;;;;;;;;;;16.61;47.47;100561.56;4956828;28;1126;-42
2024/03/03 00:41:58;;;;;;;;;;;;;;;17.44;45.19;100565.88;4949056;29;1906;-43
2024/03/03 00:44:24;;;;;;;;;;;;;;;16.42;47.79;100568.25;4939305;29;1078;-45
2024/03/03 00:46:49;;;;;;;;;;;;;;;15.93;48.61;100562.13;4941690;29;1078;-46
2024/03/03 00:49:15;;;;;;;;;;;;;;;15.67;49.27;100565.69;4958770;29;1007;-45
2024/03/03 00:51:40;;;;;;;;;;;;;;;15.43;49.89;100567.34;4958608;29;1110;-45
2024/03/03 00:54:06;;;;;;;;;;;;;;;16.59;47.54;100556.38;4958595;28;1243;-44
2024/03/03 00:56:32;;;;;;;;;;;;;;;17.38;45.62;100561.91;4948296;29;1090;-47
2024/03/03 00:58:57;;;;;;;;;;;;;;;16.38;47.75;100567.63;4956613;29;1224;-44
2024/03/03 01:01:23;;;;;;;;;;;;;;;15.98;48.47;100555.53;4955397;29;1965;-44
2024/03/03 01:03:48;;;;;;;;;;;;;;;15.65;49.38;100563.16;4956655;29;1030;-44
2024/03/03 01:06:14;;;;;;;;;;;;;;;15.45;49.78;100567.25;4959002;29;1153;-44
2024/03/03 01:08:39;;;;;;;;;;;;;;;15.91;49.12;100568.38;4958398;29;1152;-44
2024/03/03 01:11:05;;;;;;;;;;;;;;;17.28;45.94;100561.78;4958664;29;1063;-42
2024/03/03 01:13:30;;;;;;;;;;;;;;;16.58;46.97;100565.28;4958520;29;1225;-44
2024/03/03 01:15:56;;;;;;;;;;;;;;;15.95;48.60;100554.91;4957925;29;1157;-44
2024/03/03 01:18:21;;;;;;;;;;;;;;;15.71;49.16;100567.19;4958602;29;1114;-43
2024/03/03 01:20:47;;;;;;;;;;;;;;;15.42;49.89;100559.50;4941010;29;1906;-44
2024/03/03 01:23:13;;;;;;;;;;;;;;;16.60;47.67;100557.22;4958355;29;1146;-40
2024/03/03 01:25:39;;;;;;;;;;;;;;;17.34;45.35;100560.44;4958405;29;1194;-45
2024/03/03 01:28:05;;;;;;;;;;;;;;;16.37;47.76;100557.13;4958517;29;1050;-46
2024/03/03 01:30:30;;;;;;;;;;;;;;;15.98;48.46;100555.53;4941149;29;1110;-45
2024/03/03 01:32:56;;;;;;;;;;;;;;;15.64;49.44;100550.88;4955095;29;1133;-43
2024/03/03 01:35:21;;;;;;;;;;;;;;;15.49;49.67;100549.31;4931781;29;1189;-44
2024/03/03 01:37:47;;;;;;;;;;;;;;;15.76;49.78;100556.25;4940934;29;1250;-42
2024/03/03 01:40:12;;;;;;;;;;;;;;;17.18;46.09;100556.34;4954787;29;1902;-41
2024/03/03 01:42:38;;;;;;;;;;;;;;;16.77;46.61;100555.91;4954840;29;1173;-45
2024/03/03 01:45:04;;;;;;;;;;;;;;;16.07;48.17;100553.16;4958207;29;1030;-46
2024/03/03 01:47:30;;;;;;;;;;;;;;;15.72;49.04;100557.41;4955392;29;1161;-44
2024/03/03 01:49:55;;;;;;;;;;;;;;;15.50;49.79;100549.19;4930995;28;1055;-42
2024/03/03 01:52:21;;;;;;;;;;;;;;;15.32;50.14;100547.84;4940766;29;1582;-46
2024/03/03 01:54:46;;;;;;;;;;;;;;;16.59;47.68;100551.06;4941077;29;1111;-42
2024/03/03 01:57:13;;;;;;;;;;;;;;;17.52;45.23;100554.66;4941003;29;1133;-41
2024/03/03 01:59:39;;;;;;;;;;;;;;;16.47;47.24;100550.19;4941081;29;1207;-40
2024/03/03 02:02:04;;;;;;;;;;;;;;;16.00;48.31;100553.63;4929599;29;1971;-42
2024/03/03 02:04:32;;;;;;;;;;;;;;;15.65;49.31;100551.69;4940701;29;1073;-43
2024/03/03 02:06:57;;;;;;;;;;;;;;;15.49;49.41;100554.63;4943486;29;1324;-41
2024/03/03 02:09:23;;;;;;;;;;;;;;;16.22;48.37;100557.34;4962317;29;1093;-43
2024/03/03 02:11:48;;;;;;;;;;;;;;;17.42;45.30;100557.16;4961756;29;1217;-44
2024/03/03 02:14:14;;;;;;;;;;;;;;;16.62;46.96;100568.56;4961561;29;1013;-46
2024/03/03 02:16:40;;;;;;;;;;;;;;;15.94;48.43;100567.31;4944486;29;1527;-44
2024/03/03 02:19:06;;;;;;;;;;;;;;;15.72;49.04;100570.66;4944557;29;1193;-41
2024/03/03 02:21:31;;;;;;;;;;;;;;;15.42;49.87;100570.09;4961540;29;1972;-43
2024/03/03 02:23:57;;;;;;;;;;;;;;;15.34;49.88;100578.63;4961783;29;1126;-42
2024/03/03 02:26:22;;;;;;;;;;;;;;;16.80;46.97;100568.97;4958905;29;994;-41
2024/03/03 02:28:48;;;;;;;;;;;;;;;17.15;45.96;100571.69;4961550;29;1231;-41
2024/03/03 02:31:14;;;;;;;;;;;;;;;16.20;47.81;100569.88;4958538;29;1019;-43
2024/03/03 02:33:39;;;;;;;;;;;;;;;15.74;49.02;100571.41;4951899;29;1070;-40
2024/03/03 02:36:05;;;;;;;;;;;;;;;15.50;49.41;100581.00;4961481;29;1104;-43
2024/03/03 02:38:31;;;;;;;;;;;;;;;15.35;49.93;100574.16;4943851;29;1081;-47
2024/03/03 02:40:56;;;;;;;;;;;;;;;16.69;47.17;100572.44;4961504;29;1973;-42
2024/03/03 02:43:22;;;;;;;;;;;;;;;17.54;44.98;100581.94;4960962;29;1136;-43
2024/03/03 02:45:47;;;;;;;;;;;;;;;16.49;47.26;100582.78;4960825;29;1122;-45
2024/03/03 02:48:13;;;;;;;;;;;;;;;15.96;48.31;100583.97;4944136;29;1296;-43
2024/03/03 02:50:38;;;;;;;;;;;;;;;15.70;48.86;100591.16;4943902;29;1217;-45
2024/03/03 02:53:04;;;;;;;;;;;;;;;15.47;49.77;100601.59;4952438;29;1200;-45
2024/03/03 02:55:30;;;;;;;;;;;;;;;15.71;49.37;100596.38;4939771;29;1271;-42
2024/03/03 02:57:55;;;;;;;;;;;;;;;17.13;46.17;100601.06;4943812;29;1237;-44
2024/03/03 03:00:21;;;;;;;;;;;;;;;17.09;45.75;100600.44;4948335;29;1914;-42
2024/03/03 03:02:47;;;;;;;;;;;;;;;16.19;48.05;100601.84;4957875;29;1200;-46
2024/03/03 03:05:12;;;;;;;;;;;;;;;15.88;48.58;100602.25;4960654;29;1041;-45
2024/03/03 03:07:38;;;;;;;;;;;;;;;15.52;49.44;100602.97;4959725;29;1172;-44
2024/03/03 03:10:04;;;;;;;;;;;;;;;15.36;49.50;100599.72;4943743;29;1484;-45
2024/03/03 03:12:29;;;;;;;;;;;;;;;15.60;49.70;100606.91;4961084;29;1128;-40
2024/03/03 03:14:55;;;;;;;;;;;;;;;17.08;46.10;100608.50;4943080;29;1132;-42
2024/03/03 03:17:20;;;;;;;;;;;;;;;17.22;45.38;100612.75;4952141;29;1169;-43
2024/03/03 03:19:46;;;;;;;;;;;;;;;16.28;47.55;100604.66;4938858;29;1906;-43
2024/03/03 03:22:12;;;;;;;;;;;;;;;15.82;48.68;100607.97;4943485;29;1121;-40
2024/03/03 03:24:37;;;;;;;;;;;;;;;15.57;49.31;100615.91;4960236;29;1108;-44
2024/03/03 03:27:03;;;;;;;;;;;;;;;15.32;50.02;100614.97;4952677;29;1070;-45
2024/03/03 03:29:28;;;;;;;;;;;;;;;16.64;47.26;100614.44;4955583;29;1058;-41
2024/03/03 03:31:54;;;;;;;;;;;;;;;17.29;45.29;100618.44;4960538;29;1709;-44
2024/03/03 03:34:19;;;;;;;;;;;;;;;16.23;47.64;100611.28;4960290;29;1125;-41
2024/03/03 03:36:45;;;;;;;;;;;;;;;15.85;48.66;100616.56;4960251;29;1112;-46
2024/03/03 03:39:12;;;;;;;;;;;;;;;15.62;49.23;100620.88;4947307;29;1228;-42
2024/03/03 03:41:49;;;;;;;;;;;;;;;15.40;49.60;100625.03;4960394;29;1975;-46
2024/03/03 03:44:16;;;;;;;;;;;;;;;16.50;47.48;100624.28;4959987;29;1061;-46
2024/03/03 03:46:42;;;;;;;;;;;;;;;17.18;45.47;100629.94;4960096;29;1017;-42
2024/03/03 03:49:08;;;;;;;;;;;;;;;16.16;48.10;100621.50;4960038;29;1105;-42
2024/03/03 03:51:34;;;;;;;;;;;;;;;15.73;48.70;100628.91;4950637;29;877;-46
2024/03/03 03:53:59;;;;;;;;;;;;;;;15.52;49.43;100626.84;4956501;29;1102;-42
2024/03/03 03:56:25;;;;;;;;;;;;;;;15.32;49.72;100630.00;4959578;29;1046;-40
2024/03/03 03:58:50;;;;;;;;;;;;;;;16.75;46.96;100630.41;4960089;29;1018;-40
2024/03/03 04:01:19;;;;;;;;;;;;;;;17.39;45.14;100619.44;4959811;29;1910;-44
2024/03/03 04:03:45;;;;;;;;;;;;;;;16.32;47.60;100623.84;4952007;29;1093;-43
2024/03/03 04:06:11;;;;;;;;;;;;;;;15.83;48.81;100620.31;4960194;29;1185;-42
2024/03/03 04:08:36;;;;;;;;;;;;;;;15.60;48.95;100631.59;4959772;29;1167;-48
2024/03/03 04:11:02;;;;;;;;;;;;;;;15.34;49.64;100623.66;4960024;29;1154;-44
2024/03/03 04:13:27;;;;;;;;;;;;;;;16.79;46.95;100622.19;4942802;29;1062;-43
2024/03/03 04:15:53;;;;;;;;;;;;;;;17.50;44.79;100616.75;4959119;29;867;-43
2024/03/03 04:18:18;;;;;;;;;;;;;;;16.47;47.22;100619.22;4959729;29;1122;-45
2024/03/03 04:20:44;;;;;;;;;;;;;;;15.88;48.86;100615.53;4959651;29;1911;-45
2024/03/03 04:23:09;;;;;;;;;;;;;;;15.66;49.06;100622.34;4959397;29;1201;-46
2024/03/03 04:25:35;;;;;;;;;;;;;;;15.48;49.44;100621.84;4959473;29;1153;-47
2024/03/03 04:28:00;;;;;;;;;;;;;;;15.34;49.75;100628.13;4953453;29;1137;-44
2024/03/03 04:30:25;;;;;;;;;;;;;;;16.80;46.77;100621.25;4958556;28;1069;-45
2024/03/03 04:32:51;;;;;;;;;;;;;;;17.36;45.11;100623.19;4959204;29;1117;-43
2024/03/03 04:35:17;;;;;;;;;;;;;;;16.27;47.63;100624.19;4947333;29;1125;-44
2024/03/03 04:37:42;;;;;;;;;;;;;;;15.87;48.61;100624.41;4958535;29;1137;-44
2024/03/03 04:40:08;;;;;;;;;;;;;;;15.65;48.87;100629.47;4947395;29;1907;-47
2024/03/03 04:42:33;;;;;;;;;;;;;;;15.42;49.59;100631.06;4958150;28;1078;-46
2024/03/03 04:44:59;;;;;;;;;;;;;;;16.45;47.76;100636.22;4959273;29;1148;-48
2024/03/03 04:47:25;;;;;;;;;;;;;;;17.50;44.90;100627.41;4958437;29;1140;-43
2024/03/03 04:49:50;;;;;;;;;;;;;;;16.53;47.08;100639.16;4959167;29;1035;-44
2024/03/03 04:52:16;;;;;;;;;;;;;;;15.92;48.34;100638.19;4958734;28;1085;-40
2024/03/03 04:54:41;;;;;;;;;;;;;;;15.69;48.95;100642.50;4958715;29;1156;-49
2024/03/03 04:57:07;;;;;;;;;;;;;;;15.40;49.59;100638.28;4959346;29;1275;-46
2024/03/03 04:59:32;;;;;;;;;;;;;;;16.35;48.06;100636.06;4958563;29;1017;-44
2024/03/03 05:01:58;;;;;;;;;;;;;;;17.47;44.90;100640.94;4957800;29;1977;-45
2024/03/03 05:04:23;;;;;;;;;;;;;;;16.57;46.98;100642.41;4951932;29;1125;-45
2024/03/03 05:06:49;;;;;;;;;;;;;;;15.90;48.51;100646.28;4958509;29;1101;-44
2024/03/03 05:09:15;;;;;;;;;;;;;;;15.59;49.06;100643.16;4958254;29;1046;-44
2024/03/03 05:11:41;;;;;;;;;;;;;;;15.39;49.77;100647.19;4958852;29;1141;-42
2024/03/03 05:14:07;;;;;;;;;;;;;;;17.01;46.14;100643.53;4958722;29;1069;-43
2024/03/03 05:16:32;;;;;;;;;;;;;;;16.45;47.13;100646.84;4947389;29;1204;-45
2024/03/03 05:18:58;;;;;;;;;;;;;;;15.43;48.74;100646.88;4950221;29;1161;-42
2024/03/03 05:21:23;;;;;;;;;;;;;;;15.79;49.47;100646.19;4954291;29;1910;-42
2024/03/03 05:23:49;;;;;;;;;;;;;;;17.45;45.53;100647.38;4958733;29;1166;-42
2024/03/03 05:26:17;;;;;;;;;;;;;;;15.75;48.68;100648.22;4958239;29;1026;-42
2024/03/03 05:28:44;;;;;;;;;;;;;;;15.26;48.23;100652.50;4953662;29;932;-43
2024/03/03 05:31:10;;;;;;;;;;;;;;;15.89;49.14;100652.53;4958250;29;1128;-43
2024/03/03 05:33:36;;;;;;;;;;;;;;;17.33;45.68;100657.97;4958472;29;1386;-46
2024/03/03 05:36:01;;;;;;;;;;;;;;;15.78;48.52;100658.59;4958122;29;1128;-42
2024/03/03 05:38:27;;;;;;;;;;;;;;;15.28;48.49;100662.03;4958511;29;1367;-45
2024/03/03 05:40:52;;;;;;;;;;;;;;;15.94;49.26;100661.97;4946704;28;2568;-41
2024/03/03 05:43:18;;;;;;;;;;;;;;;17.05;46.51;100656.59;4951997;29;2241;-42
2024/03/03 05:45:43;;;;;;;;;;;;;;;15.68;48.59;100657.59;4952085;28;1895;-41
2024/03/03 05:48:09;;;;;;;;;;;;;;;15.87;49.42;100659.75;4957636;29;2161;-44
2024/03/03 05:50:34;;;;;;;;;;;;;;;16.79;47.10;100665.56;4957990;29;2001;-44
2024/03/03 05:53:00;;;;;;;;;;;;;;;15.62;48.81;100666.81;4956815;29;2136;-41
2024/03/03 05:55:25;;;;;;;;;;;;;;;15.80;49.48;100666.44;4958287;29;2138;-40
2024/03/03 05:57:51;;;;;;;;;;;;;;;17.52;45.80;100661.84;4955338;29;1029;-44
2024/03/03 06:00:16;;;;;;;;;;;;;;;16.00;48.32;100659.75;4947756;29;1912;-43
2024/03/03 06:02:42;;;;;;;;;;;;;;;15.48;48.02;100661.63;4940924;29;1182;-40
2024/03/03 06:05:08;;;;;;;;;;;;;;;15.30;47.37;100660.13;4948372;28;1002;-43
2024/03/03 06:07:33;;;;;;;;;;;;;;;15.61;48.69;100661.59;4954707;29;1244;-42
2024/03/03 06:09:59;;;;;;;;;;;;;;;17.37;46.71;100671.88;4957918;29;1030;-47
2024/03/03 06:12:24;;;;;;;;;;;;;;;16.06;48.55;100677.03;4957661;29;1073;-45
2024/03/03 06:14:51;;;;;;;;;;;;;;;15.49;48.70;100671.25;4957862;29;1037;-44
2024/03/03 06:17:17;;;;;;;;;;;;;;;15.24;47.80;100675.59;4950567;29;861;-43
2024/03/03 06:19:43;;;;;;;;;;;;;;;15.07;47.17;100674.97;4949226;29;1237;-42
2024/03/03 06:22:08;;;;;;;;;;;;;;;16.42;48.73;100687.75;4957648;29;1910;-43
2024/03/03 06:24:34;;;;;;;;;;;;;;;16.84;47.25;100676.69;4957831;29;2464;-42
2024/03/03 06:27:00;;;;;;;;;;;;;;;15.68;48.67;100686.75;4940591;29;1033;-39
2024/03/03 06:29:25;;;;;;;;;;;;;;;15.95;49.29;100685.72;4948335;29;1122;-45
2024/03/03 06:31:51;;;;;;;;;;;;;;;17.77;46.08;100686.50;4957464;29;1018;-41
2024/03/03 06:34:16;;;;;;;;;;;;;;;16.28;48.54;100694.91;4957361;29;1053;-45
2024/03/03 06:36:42;;;;;;;;;;;;;;;16.66;48.51;100694.88;4957583;29;1010;-46
2024/03/03 06:39:10;;;;;;;;;;;;;;;17.30;46.25;100691.94;4957244;29;1053;-40
2024/03/03 06:41:35;;;;;;;;;;;;;;;16.08;48.03;100699.00;4953389;29;1978;-40
2024/03/03 06:44:02;;;;;;;;;;;;;;;15.72;47.86;100698.81;4940239;29;1050;-41
2024/03/03 06:46:28;;;;;;;;;;;;;;;15.51;47.10;100696.72;4956745;29;1090;-41
2024/03/03 06:48:53;;;;;;;;;;;;;;;16.36;48.44;100696.16;4957538;29;1185;-45
2024/03/03 06:51:19;;;;;;;;;;;;;;;16.52;48.08;100702.03;4957494;29;1034;-43
2024/03/03 06:53:44;;;;;;;;;;;;;;;15.74;48.57;100701.38;4948298;28;2448;-44
2024/03/03 06:56:17;;;;;;;;;;;;;;;17.62;46.44;100708.03;4961143;29;1102;-44
2024/03/03 06:58:43;;;;;;;;;;;;;;;16.32;47.96;100700.84;4961095;29;1010;-40
2024/03/03 07:01:08;;;;;;;;;;;;;;;15.72;47.79;100708.56;4947952;29;1983;-45
2024/03/03 07:06:15;;;;;;;;;;;;;;;15.28;46.88;100708.91;4957430;29;1046;-40
2024/03/03 07:08:41;;;;;;;;;;;;;;;15.26;46.56;100702.88;4960763;29;1291;-39
2024/03/03 07:11:06;;;;;;;;;;;;;;;16.08;48.17;100706.13;4943394;29;1569;-44
2024/03/03 07:13:32;;;;;;;;;;;;;;;17.30;46.86;100711.38;4960177;29;1283;-47
2024/03/03 07:15:57;;;;;;;;;;;;;;;15.90;48.63;100714.38;4960559;29;1144;-42
2024/03/03 07:18:23;;;;;;;;;;;;;;;15.54;48.42;100712.44;4943411;29;1030;-43
2024/03/03 07:20:48;;;;;;;;;;;;;;;15.29;47.87;100706.16;4960523;29;1910;-42
2024/03/03 07:23:14;;;;;;;;;;;;;;;15.13;46.95;100708.97;4946194;28;1125;-44
2024/03/03 07:25:39;;;;;;;;;;;;;;;16.52;48.44;100714.47;4960532;29;2763;-40
2024/03/03 07:28:06;;;;;;;;;;;;;;;16.53;48.24;100713.53;4960251;29;1200;-43
2024/03/03 07:30:31;;;;;;;;;;;;;;;15.72;48.53;100714.75;4960061;29;1292;-45
2024/03/03 07:32:57;;;;;;;;;;;;;;;15.42;47.78;100711.47;4960352;29;999;-41
2024/03/03 07:35:22;;;;;;;;;;;;;;;16.53;48.77;100708.22;4960235;29;1556;-40
2024/03/03 07:37:48;;;;;;;;;;;;;;;16.00;48.87;100706.66;4960060;29;1601;-39
2024/03/03 07:40:13;;;;;;;;;;;;;;;15.43;48.65;100707.03;4958887;29;1918;-42
2024/03/03 07:42:39;;;;;;;;;;;;;;;17.10;47.52;100713.75;4960118;28;1021;-42
2024/03/03 07:45:04;;;;;;;;;;;;;;;15.99;48.82;100710.28;4960133;28;1137;-45
2024/03/03 07:47:30;;;;;;;;;;;;;;;15.54;48.16;100707.13;4960388;29;1118;-46
2024/03/03 07:49:55;;;;;;;;;;;;;;;15.34;47.24;100708.50;4942918;29;1174;-41
2024/03/03 07:52:21;;;;;;;;;;;;;;;15.14;47.47;100707.19;4959518;29;1185;-42
2024/03/03 07:54:47;;;;;;;;;;;;;;;17.04;47.63;100705.38;4959475;29;2551;-41
2024/03/03 07:57:13;;;;;;;;;;;;;;;15.88;48.49;100700.41;4960167;28;1054;-40
2024/03/03 07:59:39;;;;;;;;;;;;;;;15.45;48.08;100707.75;4947844;29;1223;-40
2024/03/03 08:02:05;;;;;;;;;;;;;;;17.14;47.38;100706.41;4959586;29;1907;-43
2024/03/03 08:04:30;;;;;;;;;;;;;;;15.93;48.51;100706.25;4959215;28;1137;-40
2024/03/03 08:06:56;;;;;;;;;;;;;;;15.59;48.17;100709.44;4959756;29;1123;-43
2024/03/03 08:09:21;;;;;;;;;;;;;;;15.28;47.48;100703.63;4959630;29;1120;-41
2024/03/03 08:11:46;;;;;;;;;;;;;;;15.18;46.70;100698.09;4959691;29;1221;-41
2024/03/03 08:14:12;;;;;;;;;;;;;;;16.83;47.77;100703.38;4959616;29;1115;-45
2024/03/03 08:16:38;;;;;;;;;;;;;;;17.15;46.72;100701.94;4959336;29;1045;-41
2024/03/03 08:19:03;;;;;;;;;;;;;;;15.99;48.11;100707.63;4959403;29;1101;-40
2024/03/03 08:21:30;;;;;;;;;;;;;;;15.61;48.89;100706.69;4959561;29;1966;-40
2024/03/03 08:23:55;;;;;;;;;;;;;;;17.61;46.74;100702.84;4959039;29;2427;-42
2024/03/03 08:26:21;;;;;;;;;;;;;;;16.44;48.38;100704.41;4959422;29;1054;-43
2024/03/03 08:28:46;;;;;;;;;;;;;;;15.71;48.36;100701.59;4958895;29;1470;-40
2024/03/03 08:31:13;;;;;;;;;;;;;;;15.55;47.72;100706.16;4959213;29;1136;-44
2024/03/03 08:33:38;;;;;;;;;;;;;;;16.63;48.45;100705.72;4959393;29;1093;-42
2024/03/03 08:36:04;;;;;;;;;;;;;;;16.82;47.37;100706.97;4958896;29;1006;-42
2024/03/03 08:38:30;;;;;;;;;;;;;;;15.93;48.48;100706.25;4959598;29;1091;-41
2024/03/03 08:40:55;;;;;;;;;;;;;;;15.81;49.10;100700.00;4958793;29;1890;-39
2024/03/03 08:43:21;;;;;;;;;;;;;;;17.77;46.22;100704.31;4959202;29;1181;-41
2024/03/03 08:45:47;;;;;;;;;;;;;;;16.53;47.97;100701.06;4958205;29;1092;-41
2024/03/03 08:48:12;;;;;;;;;;;;;;;15.92;48.33;100696.56;4959013;28;1050;-44
2024/03/03 08:50:38;;;;;;;;;;;;;;;15.59;47.61;100709.44;4958991;28;1035;-42
2024/03/03 08:53:05;;;;;;;;;;;;;;;15.61;48.54;100706.69;4958780;28;1031;-43
2024/03/03 08:55:30;;;;;;;;;;;;;;;17.51;46.86;100697.41;4958494;29;2642;-46
2024/03/03 08:57:56;;;;;;;;;;;;;;;16.60;47.85;100693.50;4958895;28;1060;-43
2024/03/03 09:00:21;;;;;;;;;;;;;;;15.91;48.45;100697.53;4958771;29;1906;-39
2024/03/03 09:02:47;;;;;;;;;;;;;;;15.66;47.88;100699.25;4958134;29;1003;-42
2024/03/03 09:05:12;;;;;;;;;;;;;;;15.39;47.38;100686.97;4946695;29;1121;-44
2024/03/03 09:07:39;;;;;;;;;;;;;;;16.40;48.51;100698.47;4958100;29;1140;-41
2024/03/03 09:10:05;;;;;;;;;;;;;;;16.71;47.68;100687.41;4958543;29;1034;-43
2024/03/03 09:12:31;;;;;;;;;;;;;;;15.86;48.50;100700.50;4958329;29;1370;-45
2024/03/03 09:14:56;;;;;;;;;;;;;;;15.50;47.98;100691.50;4958419;28;1046;-40
2024/03/03 09:17:22;;;;;;;;;;;;;;;17.10;47.72;100695.16;4953118;29;1034;-41
2024/03/03 09:19:47;;;;;;;;;;;;;;;16.79;47.49;100694.78;4953740;29;1035;-41
2024/03/03 09:22:13;;;;;;;;;;;;;;;15.99;48.75;100697.00;4958412;29;1910;-45
2024/03/03 09:24:42;;;;;;;;;;;;;;;17.96;45.65;100693.91;4958417;29;2604;-40
2024/03/03 09:27:09;;;;;;;;;;;;;;;16.37;48.19;100695.19;4958174;29;1110;-42
2024/03/03 09:29:34;;;;;;;;;;;;;;;15.89;48.10;100700.28;4957876;29;1544;-41
2024/03/03 09:32:02;;;;;;;;;;;;;;;15.66;47.90;100693.97;4958398;29;1042;-40
2024/03/03 09:34:27;;;;;;;;;;;;;;;16.37;48.46;100695.19;4958293;29;1006;-41
2024/03/03 09:36:53;;;;;;;;;;;;;;;16.83;47.43;100685.63;4958127;29;1205;-42
2024/03/03 09:39:18;;;;;;;;;;;;;;;16.01;48.34;100687.13;4958127;29;1086;-43
2024/03/03 09:41:44;;;;;;;;;;;;;;;16.33;49.06;100688.44;4952187;29;1914;-41
2024/03/03 09:44:10;;;;;;;;;;;;;;;17.14;46.74;100690.44;4956660;29;1136;-41
2024/03/03 09:46:37;;;;;;;;;;;;;;;16.06;48.32;100697.41;4940955;29;1014;-42
2024/03/03 09:49:02;;;;;;;;;;;;;;;15.79;47.57;100691.28;4958294;29;1126;-42
2024/03/03 09:51:28;;;;;;;;;;;;;;;15.53;47.08;100694.81;4958183;29;1038;-43
2024/03/03 09:53:54;;;;;;;;;;;;;;;15.35;47.02;100696.09;4956860;29;2360;-45
2024/03/03 09:56:20;;;;;;;;;;;;;;;15.35;47.46;100698.75;4956640;29;1108;-40
2024/03/03 09:58:46;;;;;;;;;;;;;;;17.15;47.21;100701.94;4957774;28;1081;-40
2024/03/03 10:01:11;;;;;;;;;;;;;;;15.85;48.59;100703.28;4958232;29;1973;-40
2024/03/03 10:03:37;;;;;;;;;;;;;;;17.09;47.57;100705.91;4944032;29;1100;-42
2024/03/03 10:06:04;;;;;;;;;;;;;;;17.03;47.22;100701.88;4949838;29;1086;-42
2024/03/03 10:08:29;;;;;;;;;;;;;;;16.04;48.16;100697.53;4957510;29;1030;-44
2024/03/03 10:10:55;;;;;;;;;;;;;;;15.63;47.82;100696.81;4945024;29;1121;-43
2024/03/03 10:13:20;;;;;;;;;;;;;;;17.29;47.05;100695.56;4957839;28;1109;-46
2024/03/03 10:15:47;;;;;;;;;;;;;;;16.12;48.03;100707.59;4949726;29;1175;-47
2024/03/03 10:18:13;;;;;;;;;;;;;;;15.71;47.98;100699.78;4948158;29;1046;-48
2024/03/03 10:20:38;;;;;;;;;;;;;;;16.95;47.81;100702.44;4958075;29;1906;-49
2024/03/03 10:23:05;;;;;;;;;;;;;;;16.40;47.88;100694.97;4957327;29;1041;-46
2024/03/03 10:25:30;;;;;;;;;;;;;;;15.78;48.04;100690.44;4952307;29;2657;-48
2024/03/03 10:28:11;;;;;;;;;;;;;;;16.16;48.56;100696.63;4959942;28;1091;-47
2024/03/03 10:30:36;;;;;;;;;;;;;;;17.18;46.66;100688.41;4961429;29;1077;-48
2024/03/03 10:33:02;;;;;;;;;;;;;;;16.08;47.81;100680.41;4961464;29;1104;-39
2024/03/03 10:35:28;;;;;;;;;;;;;;;15.73;47.62;100681.13;4961796;29;1108;-42
2024/03/03 10:37:55;;;;;;;;;;;;;;;15.56;47.13;100675.19;4961678;29;1017;-41
2024/03/03 10:40:21;;;;;;;;;;;;;;;16.77;47.95;100676.31;4960904;29;1910;-39
2024/03/03 10:42:47;;;;;;;;;;;;;;;17.07;46.95;100668.78;4961306;29;1232;-43
2024/03/03 10:45:12;;;;;;;;;;;;;;;16.06;47.93;100679.69;4961193;29;1057;-40
2024/03/03 10:47:38;;;;;;;;;;;;;;;15.80;48.64;100671.75;4960680;29;1133;-40
2024/03/03 10:50:08;;;;;;;;;;;;;;;16.79;47.36;100670.88;4960946;29;1461;-40
2024/03/03 10:52:40;;;;;;;;;;;;;;;15.85;48.26;100672.28;4959734;29;1085;-41
2024/03/03 10:55:09;;;;;;;;;;;;;;;15.61;47.87;100667.78;4960103;29;2558;-40
2024/03/03 10:57:35;;;;;;;;;;;;;;;17.01;47.05;100662.13;4960980;29;1018;-42
2024/03/03 11:00:04;;;;;;;;;;;;;;;16.02;47.92;100657.84;4959749;29;1061;-44
2024/03/03 11:02:30;;;;;;;;;;;;;;;15.63;47.76;100659.69;4959388;29;1330;-45
2024/03/03 11:04:56;;;;;;;;;;;;;;;15.43;46.97;100654.00;4960102;29;998;-44
2024/03/03 11:07:21;;;;;;;;;;;;;;;16.39;48.29;100651.66;4960117;29;1053;-41
2024/03/03 11:09:47;;;;;;;;;;;;;;;16.77;47.24;100647.09;4960928;29;1042;-40
2024/03/03 11:12:14;;;;;;;;;;;;;;;15.86;48.16;100646.59;4960569;29;1129;-40
2024/03/03 11:14:44;;;;;;;;;;;;;;;15.58;47.68;100640.63;4942971;29;1312;-40
2024/03/03 11:17:11;;;;;;;;;;;;;;;17.35;46.69;100629.44;4960333;29;1082;-40
2024/03/03 11:19:41;;;;;;;;;;;;;;;16.14;47.92;100636.69;4956170;29;1411;-45
2024/03/03 11:22:11;;;;;;;;;;;;;;;15.71;47.79;100635.28;4960286;29;1918;-44
2024/03/03 11:24:40;;;;;;;;;;;;;;;15.81;48.77;100635.47;4960427;29;2427;-45
2024/03/03 11:27:12;;;;;;;;;;;;;;;16.96;46.68;100628.91;4943903;29;1042;-42
2024/03/03 11:29:38;;;;;;;;;;;;;;;15.94;48.09;100624.81;4943377;29;1058;-42
2024/03/03 11:32:03;;;;;;;;;;;;;;;15.59;47.53;100629.91;4949038;29;905;-40
2024/03/03 11:34:29;;;;;;;;;;;;;;;17.50;46.45;100622.06;4959606;28;1098;-41
2024/03/03 11:36:55;;;;;;;;;;;;;;;16.29;47.69;100616.13;4960364;29;1239;-43
2024/03/03 11:39:21;;;;;;;;;;;;;;;15.78;47.95;100615.34;4959635;28;1120;-41
2024/03/03 11:41:47;;;;;;;;;;;;;;;15.70;48.45;100621.16;4946308;29;1972;-42
2024/03/03 11:44:31;;;;;;;;;;;;;;;17.71;45.96;100608.06;4942656;29;989;-45
2024/03/03 11:46:56;;;;;;;;;;;;;;;16.20;48.09;100619.47;4947956;28;1018;-40
2024/03/03 11:49:25;;;;;;;;;;;;;;;15.70;47.81;100615.03;4959950;29;1086;-39
2024/03/03 11:51:50;;;;;;;;;;;;;;;15.53;47.04;100617.91;4960156;28;1096;-43
2024/03/03 11:54:28;;;;;;;;;;;;;;;17.33;46.74;100623.41;4959389;29;2687;-43
2024/03/03 11:56:56;;;;;;;;;;;;;;;16.15;47.62;100617.13;4960207;29;1014;-41
2024/03/03 11:59:24;;;;;;;;;;;;;;;15.74;47.34;100620.00;4959975;29;1062;-41
2024/03/03 12:01:49;;;;;;;;;;;;;;;17.40;46.44;100623.75;4959777;29;1906;-45
2024/03/03 12:04:15;;;;;;;;;;;;;;;16.18;47.78;100608.97;4959568;28;1199;-44
2024/03/03 12:06:42;;;;;;;;;;;;;;;15.73;48.05;100612.16;4954694;29;1279;-40
2024/03/03 12:09:09;;;;;;;;;;;;;;;15.46;47.57;100616.66;4951880;29;1196;-42
2024/03/03 12:11:34;;;;;;;;;;;;;;;17.48;46.34;100613.38;4959707;28;1069;-45
2024/03/03 12:14:00;;;;;;;;;;;;;;;16.14;47.69;100611.00;4959715;28;1103;-42
2024/03/03 12:16:25;;;;;;;;;;;;;;;15.75;47.66;100619.03;4959561;28;1021;-39
2024/03/03 12:18:51;;;;;;;;;;;;;;;17.27;46.45;100615.91;4955210;29;1134;-41
2024/03/03 12:21:16;;;;;;;;;;;;;;;16.14;47.88;100610.13;4959306;29;1968;-43
2024/03/03 12:23:42;;;;;;;;;;;;;;;15.57;48.36;100615.03;4953872;29;2398;-45
2024/03/03 12:26:08;;;;;;;;;;;;;;;15.50;46.88;100620.78;4956536;29;1288;-42
2024/03/03 12:28:33;;;;;;;;;;;;;;;16.99;46.71;100608.25;4951055;29;1142;-44
2024/03/03 12:30:59;;;;;;;;;;;;;;;15.83;47.99;100613.16;4942631;29;1328;-44
2024/03/03 12:33:24;;;;;;;;;;;;;;;15.52;47.52;100615.38;4945470;29;1060;-44
2024/03/03 12:35:51;;;;;;;;;;;;;;;17.40;46.52;100607.00;4959253;29;1319;-44
2024/03/03 12:38:16;;;;;;;;;;;;;;;16.42;47.59;100605.44;4959357;29;1097;-43
2024/03/03 12:40:42;;;;;;;;;;;;;;;15.89;47.93;100609.25;4959043;29;1902;-46
2024/03/03 12:43:11;;;;;;;;;;;;;;;15.51;47.31;100608.38;4953316;29;1082;-43